Fulda-Jossa Airport


Codes: EDGF/
Name: Fulda-Jossa Airport
City: Fulda
Country: Germany
Elevation: 1558 ft.

Photos at Fulda-Jossa Airport


   Photos courtesy of SpottingLog. You can add your own sightings and photos by signing up for a free trial today.



No photos found.

Weather at Fulda-Jossa Airport


Time (UTC)DescriptionTempratureWindCloud coverageVisibilityPressureHumidity
16-Jun-2024 12:00Light Rain18°C16 mph, SW70%10000m1010hPa54%
16-Jun-2024 15:00Overcast Clouds17°C11 mph, SW85%10000m1010hPa60%
16-Jun-2024 18:00Overcast Clouds13°C7 mph, SW95%10000m1011hPa83%
16-Jun-2024 21:00Overcast Clouds11°C7 mph, S100%10000m1013hPa95%
17-Jun-2024 00:00Overcast Clouds10°C7 mph, S92%10000m1014hPa98%
17-Jun-2024 03:00Light Rain11°C7 mph, S100%10000m1013hPa97%
17-Jun-2024 06:00Light Rain13°C7 mph, S100%10000m1014hPa96%
17-Jun-2024 09:00Light Rain14°C9 mph, S100%3227m1015hPa96%
17-Jun-2024 12:00Light Rain16°C11 mph, SW100%10000m1015hPa89%
17-Jun-2024 15:00Light Rain17°C9 mph, SW100%10000m1015hPa85%
17-Jun-2024 18:00Light Rain16°C7 mph, SW87%10000m1015hPa93%
17-Jun-2024 21:00Overcast Clouds13°C4 mph, S90%10000m1016hPa98%
18-Jun-2024 00:00Broken Clouds12°C4 mph, S84%10000m1016hPa98%
18-Jun-2024 03:00Broken Clouds11°C2 mph, SE74%10000m1016hPa98%
18-Jun-2024 06:00Overcast Clouds15°C2 mph, SE87%10000m1016hPa92%
18-Jun-2024 09:00Broken Clouds20°C7 mph, S80%10000m1016hPa72%
18-Jun-2024 12:00Broken Clouds23°C7 mph, SW71%10000m1014hPa59%
18-Jun-2024 15:00Light Rain20°C2 mph, NW100%10000m1013hPa84%
18-Jun-2024 18:00Light Rain19°C4 mph, NW100%10000m1012hPa89%
18-Jun-2024 21:00Moderate Rain15°C7 mph, W99%4281m1013hPa98%
19-Jun-2024 00:00Light Rain13°C4 mph, NW100%10000m1015hPa97%
19-Jun-2024 03:00Overcast Clouds13°C4 mph, N100%10000m1017hPa97%
19-Jun-2024 06:00Broken Clouds13°C4 mph, N68%10000m1020hPa89%
19-Jun-2024 09:00Light Rain14°C7 mph, N71%10000m1022hPa78%
19-Jun-2024 12:00Broken Clouds18°C7 mph, N75%10000m1022hPa59%
19-Jun-2024 15:00Overcast Clouds19°C7 mph, NW96%10000m1022hPa52%
19-Jun-2024 18:00Broken Clouds17°C4 mph, NE63%10000m1023hPa74%
19-Jun-2024 21:00Broken Clouds10°C4 mph, NE58%10000m1024hPa86%
20-Jun-2024 00:00Scattered Clouds9°C4 mph, NE31%10000m1024hPa89%
20-Jun-2024 03:00Clear Sky8°C2 mph, NE0%10000m1023hPa88%
20-Jun-2024 06:00Clear Sky13°C2 mph, E0%10000m1022hPa75%
20-Jun-2024 09:00Clear Sky19°C7 mph, SE5%10000m1020hPa58%
20-Jun-2024 12:00Scattered Clouds23°C9 mph, SE41%10000m1018hPa55%
20-Jun-2024 15:00Overcast Clouds23°C9 mph, SE100%10000m1017hPa67%
20-Jun-2024 18:00Overcast Clouds22°C7 mph, SE89%10000m1014hPa79%
20-Jun-2024 21:00Overcast Clouds18°C4 mph, E86%10000m1013hPa87%
21-Jun-2024 00:00Overcast Clouds21°C9 mph, SE90%10000m1011hPa82%
21-Jun-2024 03:00Clear Sky17°C7 mph, S6%10000m1012hPa95%
21-Jun-2024 06:00Scattered Clouds21°C11 mph, SW29%10000m1012hPa84%
21-Jun-2024 09:00Overcast Clouds21°C18 mph, SW88%10000m1013hPa74%